createdAt,value
2023-05-14T00:01:53.986Z,16.82
2023-05-14T00:04:21.137Z,16.82
2023-05-14T00:06:48.492Z,16.81
2023-05-14T00:09:15.853Z,16.79
2023-05-14T00:11:43.186Z,16.78
2023-05-14T00:14:10.377Z,16.77
2023-05-14T00:16:37.599Z,16.76
2023-05-14T00:19:04.762Z,16.73
2023-05-14T00:21:32.376Z,16.72
2023-05-14T00:24:03.157Z,16.69
2023-05-14T00:26:30.272Z,16.68
2023-05-14T00:28:58.026Z,16.68
2023-05-14T00:31:25.235Z,16.66
2023-05-14T00:33:52.594Z,16.64
2023-05-14T00:36:19.860Z,16.64
2023-05-14T00:38:47.009Z,16.60
2023-05-14T00:41:14.113Z,16.57
2023-05-14T00:43:41.672Z,16.57
2023-05-14T00:46:09.244Z,16.56
2023-05-14T00:48:36.809Z,16.55
2023-05-14T00:51:04.785Z,16.51
2023-05-14T00:53:32.035Z,16.48
2023-05-14T00:55:59.283Z,16.45
2023-05-14T00:58:26.956Z,16.43
2023-05-14T01:00:54.385Z,16.43
2023-05-14T01:03:21.642Z,16.40
2023-05-14T01:06:14.359Z,16.37
2023-05-14T01:09:06.754Z,16.37
2023-05-14T01:12:12.813Z,16.36
2023-05-14T01:14:57.491Z,16.35
2023-05-14T01:17:30.485Z,16.38
2023-05-14T01:19:58.271Z,16.40
2023-05-14T01:22:25.574Z,16.42
2023-05-14T01:24:52.706Z,16.42
2023-05-14T01:27:37.204Z,16.43
2023-05-14T01:30:41.413Z,16.42
2023-05-14T01:33:14.813Z,16.42
2023-05-14T01:35:42.945Z,16.37
2023-05-14T01:38:14.386Z,16.33
2023-05-14T01:40:42.268Z,16.29
2023-05-14T01:43:09.594Z,16.25
2023-05-14T01:45:37.485Z,16.23
2023-05-14T01:48:06.682Z,16.22
2023-05-14T01:50:34.523Z,16.21
2023-05-14T01:53:01.627Z,16.21
2023-05-14T01:55:28.811Z,16.18
2023-05-14T01:57:56.713Z,16.18
2023-05-14T02:00:27.747Z,16.19
2023-05-14T02:02:54.888Z,16.16
2023-05-14T02:05:23.995Z,16.18
2023-05-14T02:07:51.413Z,16.16
2023-05-14T02:10:18.776Z,16.16
2023-05-14T02:12:49.777Z,16.15
2023-05-14T02:15:17.629Z,16.15
2023-05-14T02:17:44.724Z,16.16
2023-05-14T02:20:12.965Z,16.15
2023-05-14T02:22:45.721Z,16.17
2023-05-14T02:25:13.145Z,16.18
2023-05-14T02:27:45.416Z,16.18
2023-05-14T02:30:22.149Z,16.19
2023-05-14T02:32:49.432Z,16.17
2023-05-14T02:35:16.657Z,16.16
2023-05-14T02:37:43.642Z,16.13
2023-05-14T02:40:11.306Z,16.10
2023-05-14T02:42:38.315Z,16.10
2023-05-14T02:45:06.500Z,16.10
2023-05-14T02:47:36.108Z,16.09
2023-05-14T02:50:06.467Z,16.09
2023-05-14T02:52:33.681Z,16.08
2023-05-14T02:55:00.862Z,16.08
2023-05-14T02:57:28.689Z,16.08
2023-05-14T02:59:56.341Z,16.06
2023-05-14T03:02:24.499Z,16.06
2023-05-14T03:04:52.548Z,16.05
2023-05-14T03:07:19.873Z,16.04
2023-05-14T03:09:46.948Z,16.04
2023-05-14T03:12:14.538Z,16.03
2023-05-14T03:14:41.605Z,16.02
2023-05-14T03:17:08.604Z,16.01
2023-05-14T03:19:35.923Z,16.01
2023-05-14T03:22:03.226Z,16.02
2023-05-14T03:24:30.407Z,16.00
2023-05-14T03:26:57.506Z,15.99
2023-05-14T03:29:25.761Z,15.96
2023-05-14T03:31:54.453Z,15.96
2023-05-14T03:34:21.733Z,15.94
2023-05-14T03:36:48.913Z,15.94
2023-05-14T03:39:19.706Z,15.94
2023-05-14T03:41:47.965Z,15.95
2023-05-14T03:44:15.269Z,15.95
2023-05-14T03:46:42.746Z,15.96
2023-05-14T03:49:10.622Z,15.96
2023-05-14T03:51:37.816Z,15.97
2023-05-14T03:54:06.967Z,15.97
2023-05-14T03:56:34.161Z,15.96
2023-05-14T03:59:01.689Z,15.96
2023-05-14T04:01:28.960Z,15.93
2023-05-14T04:03:58.334Z,15.93
2023-05-14T04:06:26.098Z,15.93
2023-05-14T04:08:53.832Z,15.93
2023-05-14T04:11:21.790Z,15.94
2023-05-14T04:13:49.970Z,15.92
2023-05-14T04:16:17.174Z,15.92
2023-05-14T04:18:44.374Z,15.95
2023-05-14T04:21:11.479Z,15.96
2023-05-14T04:23:38.712Z,15.94
2023-05-14T04:26:06.493Z,15.96
2023-05-14T04:28:33.869Z,15.97
2023-05-14T04:31:01.382Z,15.95
2023-05-14T04:33:28.453Z,15.96
2023-05-14T04:35:56.056Z,15.94
2023-05-14T04:38:23.352Z,15.94
2023-05-14T04:40:50.439Z,15.94
2023-05-14T04:43:17.791Z,15.94
2023-05-14T04:45:44.954Z,15.96
2023-05-14T04:48:12.902Z,15.96
2023-05-14T04:50:40.258Z,15.96
2023-05-14T04:53:07.400Z,15.96
2023-05-14T04:55:34.493Z,15.94
2023-05-14T04:58:01.834Z,15.95
2023-05-14T05:00:31.180Z,15.95
2023-05-14T05:02:58.622Z,15.97
2023-05-14T05:05:26.323Z,15.98
2023-05-14T05:07:53.689Z,15.98
2023-05-14T05:10:21.888Z,15.98
2023-05-14T05:12:49.448Z,16.00
2023-05-14T05:15:16.646Z,16.01
2023-05-14T05:17:43.696Z,16.03
2023-05-14T05:20:11.764Z,16.03
2023-05-14T05:22:38.892Z,16.00
2023-05-14T05:25:06.477Z,15.98
2023-05-14T05:27:33.696Z,15.96
2023-05-14T05:30:02.452Z,15.96
2023-05-14T05:32:31.377Z,15.98
2023-05-14T05:34:58.480Z,15.95
2023-05-14T05:37:25.494Z,15.92
2023-05-14T05:39:52.585Z,15.94
2023-05-14T05:42:19.926Z,15.95
2023-05-14T05:44:47.087Z,15.96
2023-05-14T05:47:14.159Z,15.96
2023-05-14T05:49:43.240Z,15.96
2023-05-14T05:52:10.501Z,15.94
2023-05-14T05:54:39.923Z,15.97
2023-05-14T05:57:07.422Z,15.98
2023-05-14T05:59:34.805Z,15.93
2023-05-14T06:02:02.352Z,15.92
2023-05-14T06:04:29.469Z,15.92
2023-05-14T06:06:56.806Z,15.93
2023-05-14T06:09:24.092Z,15.94
2023-05-14T06:11:51.451Z,15.93
2023-05-14T06:14:18.648Z,15.98
2023-05-14T06:16:45.815Z,15.94
2023-05-14T06:19:13.138Z,15.94
2023-05-14T06:21:40.456Z,15.93
2023-05-14T06:24:07.862Z,16.02
2023-05-14T06:26:35.058Z,16.07
2023-05-14T06:29:02.268Z,16.13
2023-05-14T06:31:29.365Z,16.19
2023-05-14T06:33:56.538Z,16.21
2023-05-14T06:36:23.634Z,16.24
2023-05-14T06:38:50.775Z,16.28
2023-05-14T06:41:17.994Z,16.32
2023-05-14T06:43:45.114Z,16.36
2023-05-14T06:46:12.134Z,16.42
2023-05-14T06:48:39.223Z,16.45
2023-05-14T06:51:06.489Z,16.48
2023-05-14T06:53:34.005Z,16.51
2023-05-14T06:56:01.294Z,16.54
2023-05-14T06:58:28.506Z,16.58
2023-05-14T07:00:56.106Z,16.59
2023-05-14T07:03:23.378Z,16.64
2023-05-14T07:05:51.235Z,16.63
2023-05-14T07:08:18.439Z,16.61
2023-05-14T07:10:46.019Z,16.63
2023-05-14T07:13:13.791Z,16.67
2023-05-14T07:15:40.959Z,16.72
2023-05-14T07:18:08.186Z,16.61
2023-05-14T07:20:35.374Z,16.60
2023-05-14T07:23:02.628Z,16.63
2023-05-14T07:25:29.801Z,16.64
2023-05-14T07:27:56.956Z,16.62
2023-05-14T07:30:24.645Z,16.64
2023-05-14T07:32:52.029Z,16.59
2023-05-14T07:35:19.373Z,16.57
2023-05-14T07:37:47.326Z,16.59
2023-05-14T07:40:15.498Z,16.58
2023-05-14T07:42:42.586Z,16.63
2023-05-14T07:45:10.245Z,16.68
2023-05-14T07:47:37.440Z,16.68
2023-05-14T07:50:05.065Z,16.71
2023-05-14T07:52:33.158Z,16.75
2023-05-14T07:55:01.662Z,16.75
2023-05-14T07:57:29.634Z,16.73
2023-05-14T07:59:57.298Z,16.74
2023-05-14T08:02:25.128Z,16.80
2023-05-14T08:04:52.926Z,16.84
2023-05-14T08:07:20.276Z,16.85
2023-05-14T08:09:47.813Z,16.90
2023-05-14T08:12:19.249Z,16.94
2023-05-14T08:14:46.733Z,16.94
2023-05-14T08:17:14.062Z,16.92
2023-05-14T08:19:41.743Z,16.94
2023-05-14T08:22:08.955Z,16.97
2023-05-14T08:24:36.179Z,17.00
2023-05-14T08:27:04.042Z,17.01
2023-05-14T08:29:31.494Z,17.03
2023-05-14T08:32:00.333Z,17.00
2023-05-14T08:34:31.210Z,17.00
2023-05-14T08:36:59.633Z,17.02
2023-05-14T08:39:26.744Z,17.05
2023-05-14T08:41:57.975Z,17.10
2023-05-14T08:44:37.962Z,17.14
2023-05-14T08:47:05.897Z,17.08
2023-05-14T08:49:43.623Z,17.13
2023-05-14T08:52:11.536Z,17.15
2023-05-14T08:54:40.877Z,17.11
2023-05-14T08:57:11.813Z,17.18
2023-05-14T08:59:39.366Z,17.20
2023-05-14T09:02:07.257Z,17.21
2023-05-14T09:04:35.099Z,17.25
2023-05-14T09:07:04.220Z,17.30
2023-05-14T09:09:34.529Z,17.31
2023-05-14T09:12:02.445Z,17.29
2023-05-14T09:14:29.641Z,17.36
2023-05-14T09:16:57.238Z,17.39
2023-05-14T09:19:25.008Z,17.39
2023-05-14T09:21:52.271Z,17.39
2023-05-14T09:24:25.380Z,17.47
2023-05-14T09:26:58.323Z,17.52
2023-05-14T09:29:26.672Z,17.56
2023-05-14T09:31:55.217Z,17.59
2023-05-14T09:34:25.449Z,17.63
2023-05-14T09:37:05.936Z,17.69
2023-05-14T09:39:36.495Z,17.64
2023-05-14T09:42:04.305Z,17.72
2023-05-14T09:44:32.013Z,17.80
2023-05-14T09:46:59.303Z,17.87
2023-05-14T09:49:26.493Z,18.00
2023-05-14T09:51:53.702Z,18.06
2023-05-14T09:54:21.278Z,18.06
2023-05-14T09:56:48.866Z,18.17
2023-05-14T09:59:16.228Z,18.23
2023-05-14T10:01:44.624Z,18.29
2023-05-14T10:04:12.944Z,18.35
2023-05-14T10:06:42.577Z,18.38
2023-05-14T10:09:13.848Z,18.38
2023-05-14T10:11:50.275Z,18.42
2023-05-14T10:14:41.696Z,18.44
2023-05-14T10:17:18.149Z,18.51
2023-05-14T10:19:54.842Z,18.56
2023-05-14T10:22:24.624Z,18.66
2023-05-14T10:24:52.726Z,18.71
2023-05-14T10:27:26.775Z,18.75
2023-05-14T10:29:55.525Z,18.74
2023-05-14T10:32:25.882Z,18.81
2023-05-14T10:34:53.920Z,18.76
2023-05-14T10:37:26.468Z,18.80
2023-05-14T10:40:02.580Z,18.82
2023-05-14T10:42:37.659Z,18.86
2023-05-14T10:45:08.415Z,18.86
2023-05-14T10:47:42.225Z,18.89
2023-05-14T10:50:11.809Z,18.88
2023-05-14T10:52:43.518Z,18.97
2023-05-14T10:55:15.463Z,19.02
2023-05-14T10:57:46.514Z,19.05
2023-05-14T11:00:15.632Z,19.02
2023-05-14T11:02:45.172Z,19.01
2023-05-14T11:05:17.281Z,18.88
2023-05-14T11:07:50.494Z,18.93
2023-05-14T11:10:21.040Z,18.93
2023-05-14T11:12:55.134Z,18.93
2023-05-14T11:15:29.181Z,18.94
2023-05-14T11:17:56.584Z,18.90
2023-05-14T11:20:24.069Z,18.85
2023-05-14T11:22:54.019Z,18.84
2023-05-14T11:25:22.871Z,18.81
2023-05-14T11:27:50.486Z,18.81
2023-05-14T11:30:20.567Z,18.80
2023-05-14T11:32:49.461Z,18.79
2023-05-14T11:35:17.836Z,18.78
2023-05-14T11:37:52.466Z,18.77
2023-05-14T11:40:20.115Z,18.76
2023-05-14T11:42:47.177Z,18.75
2023-05-14T11:45:27.172Z,18.75
2023-05-14T11:47:54.947Z,18.77
2023-05-14T11:50:23.300Z,18.77
2023-05-14T11:52:51.171Z,18.79
2023-05-14T11:55:18.533Z,18.79
2023-05-14T11:57:46.503Z,18.81
2023-05-14T12:00:16.967Z,18.84
2023-05-14T12:02:44.384Z,18.87
2023-05-14T12:05:13.632Z,18.89
2023-05-14T12:07:44.925Z,18.92
2023-05-14T12:10:13.717Z,18.95
2023-05-14T12:12:41.080Z,18.98
2023-05-14T12:15:18.531Z,19.03
2023-05-14T12:17:52.301Z,19.08
2023-05-14T12:20:19.604Z,19.11
2023-05-14T12:22:46.804Z,19.12
2023-05-14T12:25:14.435Z,19.15
2023-05-14T12:27:44.792Z,19.15
2023-05-14T12:30:27.505Z,19.18
2023-05-14T12:32:54.967Z,19.17
2023-05-14T12:35:23.114Z,19.19
2023-05-14T12:37:50.730Z,19.19
2023-05-14T12:40:18.228Z,19.20
2023-05-14T12:42:45.832Z,19.22
2023-05-14T12:45:12.955Z,19.25
2023-05-14T12:47:40.114Z,19.27
2023-05-14T12:50:08.037Z,19.27
2023-05-14T12:52:40.744Z,19.24
2023-05-14T12:55:09.375Z,19.22
2023-05-14T12:57:39.314Z,19.12
2023-05-14T13:00:13.720Z,19.12
2023-05-14T13:02:42.525Z,19.09
2023-05-14T13:05:12.501Z,19.07
2023-05-14T13:07:40.094Z,19.02
2023-05-14T13:10:09.017Z,18.90
2023-05-14T13:12:36.335Z,18.87
2023-05-14T13:15:03.627Z,18.87
2023-05-14T13:17:32.607Z,18.85
2023-05-14T13:19:59.621Z,18.81
2023-05-14T13:22:26.809Z,18.82
2023-05-14T13:24:54.738Z,18.80
2023-05-14T13:27:21.878Z,18.80
2023-05-14T13:29:48.935Z,18.77
2023-05-14T13:32:16.102Z,18.73
2023-05-14T13:34:44.171Z,18.74
2023-05-14T13:37:11.470Z,18.72
2023-05-14T13:39:40.299Z,18.69
2023-05-14T13:42:11.373Z,18.65
2023-05-14T13:44:38.522Z,18.61
2023-05-14T13:47:05.998Z,18.58
2023-05-14T13:49:33.130Z,18.54
2023-05-14T13:52:00.383Z,18.49
2023-05-14T13:54:45.410Z,18.48
2023-05-14T13:58:02.328Z,18.42
2023-05-14T14:05:09.237Z,18.29
2023-05-14T14:10:57.802Z,18.28
2023-05-14T14:13:31.209Z,18.27
2023-05-14T14:15:58.326Z,18.25
2023-05-14T14:18:28.086Z,18.26
2023-05-14T14:20:55.985Z,18.24
2023-05-14T14:23:22.992Z,18.25
2023-05-14T14:25:50.126Z,18.26
2023-05-14T14:28:17.410Z,18.25
2023-05-14T14:30:44.771Z,18.23
2023-05-14T14:33:11.909Z,18.24
2023-05-14T14:35:39.243Z,18.24
2023-05-14T14:38:06.364Z,18.24
2023-05-14T14:40:34.850Z,18.24
2023-05-14T14:43:03.487Z,18.19
2023-05-14T14:45:30.922Z,18.18
2023-05-14T14:48:39.946Z,18.15
2023-05-14T14:51:11.211Z,18.09
2023-05-14T14:54:10.872Z,18.11
2023-05-14T14:56:59.308Z,18.08
2023-05-14T14:59:54.784Z,18.08
2023-05-14T15:02:22.214Z,18.09
2023-05-14T15:04:49.519Z,18.09
2023-05-14T15:07:22.762Z,18.10
2023-05-14T15:09:50.024Z,18.09
2023-05-14T15:12:17.225Z,18.10
2023-05-14T15:14:44.407Z,18.09
2023-05-14T15:17:12.075Z,18.09
2023-05-14T15:19:39.218Z,18.05
2023-05-14T15:22:06.374Z,18.02
2023-05-14T15:24:33.528Z,18.00
2023-05-14T15:27:00.762Z,17.98
2023-05-14T15:29:28.769Z,17.96
2023-05-14T15:31:56.043Z,17.95
2023-05-14T15:34:23.244Z,17.94
2023-05-14T15:36:50.662Z,17.90
2023-05-14T15:39:17.863Z,17.90
2023-05-14T15:41:45.548Z,17.89
2023-05-14T15:44:12.630Z,17.90
2023-05-14T15:46:39.745Z,17.87
2023-05-14T15:49:06.893Z,17.87
2023-05-14T15:51:34.736Z,17.83
2023-05-14T15:54:02.065Z,17.80
2023-05-14T15:56:29.423Z,17.78
2023-05-14T15:58:56.736Z,17.77
2023-05-14T16:01:23.969Z,17.75
2023-05-14T16:03:53.198Z,17.75
2023-05-14T16:06:20.622Z,17.75
2023-05-14T16:08:47.828Z,17.74
2023-05-14T16:11:15.004Z,17.74
2023-05-14T16:13:42.062Z,17.71
2023-05-14T16:16:09.163Z,17.71
2023-05-14T16:18:36.744Z,17.69
2023-05-14T16:21:03.853Z,17.67
2023-05-14T16:23:31.119Z,17.66
2023-05-14T16:25:58.306Z,17.66
2023-05-14T16:28:25.806Z,17.62
2023-05-14T16:30:52.837Z,17.60
2023-05-14T16:33:19.911Z,17.59
2023-05-14T16:35:47.043Z,17.55
2023-05-14T16:38:14.084Z,17.52
2023-05-14T16:40:41.847Z,17.51
2023-05-14T16:43:08.991Z,17.46
2023-05-14T16:45:37.504Z,17.42
2023-05-14T16:48:05.158Z,17.39
2023-05-14T16:50:32.504Z,17.37
2023-05-14T16:52:59.588Z,17.34
2023-05-14T16:55:39.035Z,17.34
2023-05-14T16:58:30.744Z,17.34
2023-05-14T17:00:59.047Z,17.32
2023-05-14T17:07:24.194Z,17.27
2023-05-14T17:10:48.304Z,17.25
2023-05-14T17:13:58.417Z,17.24
2023-05-14T17:22:15.441Z,17.15
2023-05-14T17:24:45.279Z,17.07
2023-05-14T17:27:13.085Z,17.05
2023-05-14T17:29:41.043Z,17.01
2023-05-14T17:32:08.188Z,17.00
2023-05-14T17:34:35.219Z,16.97
2023-05-14T17:37:02.366Z,16.96
2023-05-14T17:39:43.171Z,16.96
2023-05-14T17:42:11.036Z,16.97
2023-05-14T17:44:38.106Z,16.96
2023-05-14T17:47:06.776Z,16.94
2023-05-14T17:49:34.366Z,16.94
2023-05-14T17:52:02.085Z,16.93
2023-05-14T17:54:29.764Z,16.88
2023-05-14T17:56:57.073Z,16.86
2023-05-14T17:59:24.523Z,16.85
2023-05-14T18:01:51.707Z,16.82
2023-05-14T18:04:18.830Z,16.82
2023-05-14T18:06:48.156Z,16.84
2023-05-14T18:09:15.782Z,16.83
2023-05-14T18:11:43.132Z,16.83
2023-05-14T18:14:10.356Z,16.82
2023-05-14T18:16:37.907Z,16.82
2023-05-14T18:19:05.205Z,16.82
2023-05-14T18:21:32.602Z,16.80
2023-05-14T18:23:59.693Z,16.78
2023-05-14T18:26:26.764Z,16.77
2023-05-14T18:28:53.938Z,16.74
2023-05-14T18:31:21.280Z,16.73
2023-05-14T18:33:48.506Z,16.72
2023-05-14T18:36:15.721Z,16.70
2023-05-14T18:38:43.205Z,16.70
2023-05-14T18:41:39.225Z,16.70
2023-05-14T18:49:17.618Z,16.66
2023-05-14T18:51:50.524Z,16.64
2023-05-14T18:54:24.411Z,16.58
2023-05-14T18:56:52.646Z,16.56
2023-05-14T18:59:20.945Z,16.53
2023-05-14T19:01:48.320Z,16.54
2023-05-14T19:04:20.532Z,16.53
2023-05-14T19:07:03.103Z,16.53
2023-05-14T19:09:30.271Z,16.52
2023-05-14T19:15:27.799Z,16.50
2023-05-14T19:17:57.733Z,16.49
2023-05-14T19:20:24.990Z,16.46
2023-05-14T19:22:52.209Z,16.44
2023-05-14T19:25:19.246Z,16.45
2023-05-14T19:27:50.648Z,16.46
2023-05-14T19:30:19.474Z,16.41
2023-05-14T19:32:46.581Z,16.33
2023-05-14T19:35:13.638Z,16.33
2023-05-14T19:37:40.743Z,16.28
2023-05-14T19:40:09.103Z,16.26
2023-05-14T19:42:36.279Z,16.25
2023-05-14T19:45:04.138Z,16.22
2023-05-14T19:47:31.319Z,16.17
2023-05-14T19:49:58.660Z,16.11
2023-05-14T19:52:25.786Z,16.10
2023-05-14T19:54:52.889Z,16.09
2023-05-14T19:57:20.389Z,16.07
2023-05-14T19:59:54.698Z,16.09
2023-05-14T20:02:22.079Z,16.05
2023-05-14T20:04:49.631Z,16.07
2023-05-14T20:07:17.324Z,16.10
2023-05-14T20:09:44.448Z,16.12
2023-05-14T20:12:18.006Z,16.17
2023-05-14T20:14:45.087Z,16.15
2023-05-14T20:17:12.476Z,16.15
2023-05-14T20:19:39.736Z,16.14
2023-05-14T20:22:06.828Z,16.10
2023-05-14T20:24:33.888Z,16.05
2023-05-14T20:27:00.963Z,16.05
2023-05-14T20:29:28.121Z,16.06
2023-05-14T20:31:55.179Z,16.09
2023-05-14T20:34:22.243Z,16.08
2023-05-14T20:36:49.320Z,16.06
2023-05-14T20:39:16.771Z,16.03
2023-05-14T20:41:45.690Z,16.00
2023-05-14T20:44:12.741Z,15.99
2023-05-14T20:47:03.209Z,16.02
2023-05-14T20:58:42.305Z,16.03
2023-05-14T21:06:02.418Z,16.01
2023-05-14T21:08:42.908Z,15.99
2023-05-14T21:11:34.138Z,15.96
2023-05-14T21:14:20.714Z,15.89
2023-05-14T21:16:48.626Z,15.86
2023-05-14T21:19:18.884Z,15.86
2023-05-14T21:21:47.507Z,15.85
2023-05-14T21:24:16.760Z,15.81
2023-05-14T21:26:43.856Z,15.82
2023-05-14T21:29:11.441Z,15.78
2023-05-14T21:32:01.227Z,15.77
2023-05-14T21:34:49.210Z,15.70
2023-05-14T21:37:39.787Z,15.71
2023-05-14T21:40:23.143Z,15.71
2023-05-14T21:42:50.265Z,15.72
2023-05-14T21:45:17.516Z,15.73
2023-05-14T21:47:44.728Z,15.74
2023-05-14T21:50:13.118Z,15.72
2023-05-14T21:52:41.329Z,15.70
2023-05-14T21:55:09.430Z,15.69
2023-05-14T21:57:53.126Z,15.65
2023-05-14T22:00:41.007Z,15.65
2023-05-14T22:03:18.527Z,15.63
2023-05-14T22:06:05.925Z,15.64
2023-05-14T22:08:33.282Z,15.63
2023-05-14T22:11:45.870Z,15.63
2023-05-14T22:15:31.181Z,15.60
2023-05-14T22:18:43.213Z,15.58
2023-05-14T22:22:03.390Z,15.56
2023-05-14T22:24:55.710Z,15.57
2023-05-14T22:27:32.301Z,15.55
2023-05-14T22:30:13.933Z,15.58
2023-05-14T22:32:41.381Z,15.59
2023-05-14T22:35:31.390Z,15.61
2023-05-14T22:38:11.340Z,15.60
2023-05-14T22:41:07.947Z,15.61
2023-05-14T22:44:20.074Z,15.62
2023-05-14T22:47:42.332Z,15.61
2023-05-14T22:51:15.988Z,15.57
2023-05-14T22:53:55.893Z,15.55
2023-05-14T22:57:04.656Z,15.56
2023-05-14T23:04:08.600Z,15.54
2023-05-14T23:06:44.311Z,15.50
2023-05-14T23:09:25.698Z,15.47
2023-05-14T23:14:56.581Z,15.43
2023-05-14T23:18:24.781Z,15.40
2023-05-14T23:21:31.146Z,15.37
2023-05-14T23:25:12.519Z,15.36
2023-05-14T23:28:16.580Z,15.36
2023-05-14T23:31:30.151Z,15.33
2023-05-14T23:34:30.226Z,15.33
2023-05-14T23:37:57.602Z,15.29
2023-05-14T23:41:22.831Z,15.26
2023-05-14T23:44:21.715Z,15.26
2023-05-14T23:57:47.242Z,15.10
